Map

Track Data

SID SEASON NUMBER BASIN SUBBASIN NAME ISO_TIME NATURE LAT LON WMO_WIND WMO_PRES WMO_AGENCY TRACK_TYPE DIST2LAND LANDFALL IFLAG USA_AGENCY USA_ATCF_ID USA_LAT USA_LON USA_RECORD USA_STATUS USA_WIND USA_PRES USA_SSHS USA_R34_NE USA_R34_SE USA_R34_SW USA_R34_NW USA_R50_NE USA_R50_SE USA_R50_SW USA_R50_NW USA_R64_NE USA_R64_SE USA_R64_SW USA_R64_NW USA_POCI USA_ROCI USA_RMW USA_EYE TOKYO_LAT TOKYO_LON TOKYO_GRADE TOKYO_WIND TOKYO_PRES TOKYO_R50_DIR TOKYO_R50_LONG TOKYO_R50_SHORT TOKYO_R30_DIR TOKYO_R30_LONG TOKYO_R30_SHORT TOKYO_LAND CMA_LAT CMA_LON CMA_CAT CMA_WIND CMA_PRES HKO_LAT HKO_LON HKO_CAT HKO_WIND HKO_PRES NEWDELHI_LAT NEWDELHI_LON NEWDELHI_GRADE NEWDELHI_WIND NEWDELHI_PRES NEWDELHI_CI NEWDELHI_DP NEWDELHI_POCI REUNION_LAT REUNION_LON REUNION_TYPE REUNION_WIND REUNION_PRES REUNION_TNUM REUNION_CI REUNION_RMW REUNION_R34_NE REUNION_R34_SE REUNION_R34_SW REUNION_R34_NW REUNION_R50_NE REUNION_R50_SE REUNION_R50_SW REUNION_R50_NW REUNION_R64_NE REUNION_R64_SE REUNION_R64_SW REUNION_R64_NW BOM_LAT BOM_LON BOM_TYPE BOM_WIND BOM_PRES BOM_TNUM BOM_CI BOM_RMW BOM_R34_NE BOM_R34_SE BOM_R34_SW BOM_R34_NW BOM_R50_NE BOM_R50_SE BOM_R50_SW BOM_R50_NW BOM_R64_NE BOM_R64_SE BOM_R64_SW BOM_R64_NW BOM_ROCI BOM_POCI BOM_EYE BOM_POS_METHOD BOM_PRES_METHOD NADI_LAT NADI_LON NADI_CAT NADI_WIND NADI_PRES WELLINGTON_LAT WELLINGTON_LON WELLINGTON_WIND WELLINGTON_PRES DS824_LAT DS824_LON DS824_STAGE DS824_WIND DS824_PRES TD9636_LAT TD9636_LON TD9636_STAGE TD9636_WIND TD9636_PRES TD9635_LAT TD9635_LON TD9635_WIND TD9635_PRES TD9635_ROCI NEUMANN_LAT NEUMANN_LON NEUMANN_CLASS NEUMANN_WIND NEUMANN_PRES MLC_LAT MLC_LON MLC_CLASS MLC_WIND MLC_PRES USA_GUST BOM_GUST BOM_GUST_PER REUNION_GUST REUNION_GUST_PER USA_SEAHGT USA_SEARAD_NE USA_SEARAD_SE USA_SEARAD_SW USA_SEARAD_NW STORM_SPEED STORM_DIR
1996269N09337 1996 89 NA NA ISIDORE 1996-09-24 12:00:00 TS 8.60000 -23.3000 25 1008 hurdat_atl main 828 828 O_____________ hurdat_atl AL091996 8.60000 -23.3000 TD 25 1008 -1 20 286
1996269N09337 1996 89 NA NA ISIDORE 1996-09-24 15:00:00 TS 8.88305 -24.2674 main 908 908 P_____________ AL091996 8.88305 -24.2674 TD 27 1008 -1 20 288
1996269N09337 1996 89 NA NA ISIDORE 1996-09-24 18:00:00 TS 9.20000 -25.2000 30 1008 hurdat_atl main 985 985 O_____________ hurdat_atl AL091996 9.20000 -25.2000 TD 30 1008 -1 19 291
1996269N09337 1996 89 NA NA ISIDORE 1996-09-24 21:00:00 TS 9.56473 -26.0724 main 1063 1063 P_____________ AL091996 9.56473 -26.0724 TD 30 1007 -1 18 293
1996269N09337 1996 89 NA NA ISIDORE 1996-09-25 00:00:00 TS 9.90000 -26.9000 30 1006 hurdat_atl main 1137 1137 O_____________ hurdat_atl AL091996 9.90000 -26.9000 TD 30 1006 -1 17 289
1996269N09337 1996 89 NA NA ISIDORE 1996-09-25 03:00:00 TS 10.1223 -27.7152 main 1217 1217 P_____________ AL091996 10.1223 -27.7152 TD 32 1005 -1 16 284
1996269N09337 1996 89 NA NA ISIDORE 1996-09-25 06:00:00 TS 10.3000 -28.5000 35 1004 hurdat_atl main 1292 1292 O_____________ hurdat_atl AL091996 10.3000 -28.5000 TS 35 1004 0 16 284
1996269N09337 1996 89 NA NA ISIDORE 1996-09-25 09:00:00 TS 10.5072 -29.2426 main 1354 1354 P_____________ AL091996 10.5072 -29.2426 TS 40 1002 0 15 285
1996269N09337 1996 89 NA NA ISIDORE 1996-09-25 12:00:00 TS 10.7000 -30.0000 45 1000 hurdat_atl main 1428 1428 O_____________ hurdat_atl AL091996 10.7000 -30.0000 TS 45 1000 0 17 283
1996269N09337 1996 89 NA NA ISIDORE 1996-09-25 15:00:00 TS 10.8652 -30.8800 main 1514 1514 P_____________ AL091996 10.8652 -30.8800 TS 47 997 0 17 280
1996269N09337 1996 89 NA NA ISIDORE 1996-09-25 18:00:00 TS 11.0000 -31.7000 50 994 hurdat_atl main 1594 1594 O_____________ hurdat_atl AL091996 11.0000 -31.7000 TS 50 994 0 14 279
1996269N09337 1996 89 NA NA ISIDORE 1996-09-25 21:00:00 TS 11.0845 -32.2728 main 1654 1654 P_____________ AL091996 11.0845 -32.2728 TS 55 991 0 11 280
1996269N09337 1996 89 NA NA ISIDORE 1996-09-26 00:00:00 TS 11.2000 -32.8000 60 988 hurdat_atl main 1704 1704 O_____________ hurdat_atl AL091996 11.2000 -32.8000 TS 60 988 0 12 286
1996269N09337 1996 89 NA NA ISIDORE 1996-09-26 03:00:00 TS 11.4124 -33.4626 main 1747 1742 P_____________ AL091996 11.4124 -33.4626 TS 65 986 1 15 290
1996269N09337 1996 89 NA NA ISIDORE 1996-09-26 06:00:00 TS 11.7000 -34.2000 70 984 hurdat_atl main 1749 1745 O_____________ hurdat_atl AL091996 11.7000 -34.2000 HU 70 984 1 16 293
1996269N09337 1996 89 NA NA ISIDORE 1996-09-26 09:00:00 TS 12.0576 -35.0073 main 1762 1755 P_____________ AL091996 12.0576 -35.0073 HU 70 982 1 17 294
1996269N09337 1996 89 NA NA ISIDORE 1996-09-26 12:00:00 TS 12.4000 -35.8000 70 980 hurdat_atl main 1770 1767 O_____________ hurdat_atl AL091996 12.4000 -35.8000 HU 70 980 1 15 292
1996269N09337 1996 89 NA NA ISIDORE 1996-09-26 15:00:00 TS 12.6295 -36.4578 main 1774 1774 P_____________ AL091996 12.6295 -36.4578 HU 72 978 1 13 288
1996269N09337 1996 89 NA NA ISIDORE 1996-09-26 18:00:00 TS 12.8000 -37.1000 75 977 hurdat_atl main 1784 1769 O_____________ hurdat_atl AL091996 12.8000 -37.1000 HU 75 977 1 14 283
1996269N09337 1996 89 NA NA ISIDORE 1996-09-26 21:00:00 TS 12.9351 -37.8578 main 1760 1708 P_____________ AL091996 12.9351 -37.8578 HU 77 975 1 15 282
1996269N09337 1996 89 NA NA ISIDORE 1996-09-27 00:00:00 TS 13.1000 -38.6000 80 974 hurdat_atl main 1708 1674 O_____________ hurdat_atl AL091996 13.1000 -38.6000 HU 80 974 1 14 289
1996269N09337 1996 89 NA NA ISIDORE 1996-09-27 03:00:00 TS 13.3921 -39.2149 main 1674 1643 P_____________ AL091996 13.3921 -39.2149 HU 82 973 1 13 297
1996269N09337 1996 89 NA NA ISIDORE 1996-09-27 06:00:00 TS 13.7000 -39.8000 85 972 hurdat_atl main 1643 1608 O_____________ hurdat_atl AL091996 13.7000 -39.8000 HU 85 972 2 13 292
1996269N09337 1996 89 NA NA ISIDORE 1996-09-27 09:00:00 TS 13.8850 -40.4579 main 1600 1567 P_____________ AL091996 13.8850 -40.4579 HU 87 970 2 13 288
1996269N09337 1996 89 NA NA ISIDORE 1996-09-27 12:00:00 TS 14.1000 -41.1000 90 968 hurdat_atl main 1567 1545 O_____________ hurdat_atl AL091996 14.1000 -41.1000 HU 90 968 2 13 296
1996269N09337 1996 89 NA NA ISIDORE 1996-09-27 15:00:00 TS 14.4624 -41.6949 main 1553 1545 P_____________ AL091996 14.4624 -41.6949 HU 92 965 2 13 307
1996269N09337 1996 89 NA NA ISIDORE 1996-09-27 18:00:00 TS 14.9000 -42.2000 95 963 hurdat_atl main 1550 1543 O_____________ hurdat_atl AL091996 14.9000 -42.2000 HU 95 963 2 13 315
1996269N09337 1996 89 NA NA ISIDORE 1996-09-27 21:00:00 TS 15.3424 -42.6175 main 1557 1557 P_____________ AL091996 15.3424 -42.6175 HU 97 961 3 11 323
1996269N09337 1996 89 NA NA ISIDORE 1996-09-28 00:00:00 TS 15.8000 -42.9000 100 960 hurdat_atl main 1582 1582 O_____________ hurdat_atl AL091996 15.8000 -42.9000 HU 100 960 3 10 335
1996269N09337 1996 89 NA NA ISIDORE 1996-09-28 03:00:00 TS 16.2349 -43.0452 main 1612 1612 P_____________ AL091996 16.2349 -43.0452 HU 100 960 3 9 348
1996269N09337 1996 89 NA NA ISIDORE 1996-09-28 06:00:00 TS 16.7000 -43.1000 100 961 hurdat_atl main 1652 1652 O_____________ hurdat_atl AL091996 16.7000 -43.1000 HU 100 961 3 10 354
1996269N09337 1996 89 NA NA ISIDORE 1996-09-28 09:00:00 TS 17.2275 -43.1650 main 1689 1689 P_____________ AL091996 17.2275 -43.1650 HU 97 963 3 11 355
1996269N09337 1996 89 NA NA ISIDORE 1996-09-28 12:00:00 TS 17.8000 -43.2000 95 965 hurdat_atl main 1742 1742 O_____________ hurdat_atl AL091996 17.8000 -43.2000 HU 95 965 2 12 358
1996269N09337 1996 89 NA NA ISIDORE 1996-09-28 15:00:00 TS 18.4075 -43.2299 main 1796 1796 P_____________ AL091996 18.4075 -43.2299 HU 92 966 2 12 1
1996269N09337 1996 89 NA NA ISIDORE 1996-09-28 18:00:00 TS 19.0000 -43.2000 90 968 hurdat_atl main 1851 1851 O_____________ hurdat_atl AL091996 19.0000 -43.2000 HU 90 968 2 11 6
1996269N09337 1996 89 NA NA ISIDORE 1996-09-28 21:00:00 TS 19.5299 -43.1024 main 1903 1903 P_____________ AL091996 19.5299 -43.1024 HU 87 970 2 10 16
1996269N09337 1996 89 NA NA ISIDORE 1996-09-29 00:00:00 TS 20.0000 -42.9000 85 973 hurdat_atl main 1961 1961 O_____________ hurdat_atl AL091996 20.0000 -42.9000 HU 85 973 2 10 29
1996269N09337 1996 89 NA NA ISIDORE 1996-09-29 03:00:00 TS 20.4000 -42.5947 main 2016 2016 P_____________ AL091996 20.4000 -42.5947 HU 80 976 1 10 39
1996269N09337 1996 89 NA NA ISIDORE 1996-09-29 06:00:00 TS 20.8000 -42.2000 75 979 hurdat_atl main 2076 2076 O_____________ hurdat_atl AL091996 20.8000 -42.2000 HU 75 979 1 12 42
1996269N09337 1996 89 NA NA ISIDORE 1996-09-29 09:00:00 TS 21.3002 -41.7279 main 2152 2152 P_____________ AL091996 21.3002 -41.7279 HU 72 980 1 13 40
1996269N09337 1996 89 NA NA ISIDORE 1996-09-29 12:00:00 TS 21.8000 -41.3000 70 982 hurdat_atl main 2221 2221 O_____________ hurdat_atl AL091996 21.8000 -41.3000 HU 70 982 1 11 35
1996269N09337 1996 89 NA NA ISIDORE 1996-09-29 15:00:00 TS 22.1847 -41.0693 main 2270 2270 P_____________ AL091996 22.1847 -41.0693 HU 67 984 1 9 25
1996269N09337 1996 89 NA NA ISIDORE 1996-09-29 18:00:00 TS 22.6000 -40.9000 65 986 hurdat_atl main 2318 2318 O_____________ hurdat_atl AL091996 22.6000 -40.9000 HU 65 986 1 10 22
1996269N09337 1996 89 NA NA ISIDORE 1996-09-29 21:00:00 TS 23.1476 -40.6426 main 2381 2381 P_____________ AL091996 23.1476 -40.6426 HU 62 987 0 13 21
1996269N09337 1996 89 NA NA ISIDORE 1996-09-30 00:00:00 TS 23.8000 -40.4000 60 989 hurdat_atl main 2403 2362 O_____________ hurdat_atl AL091996 23.8000 -40.4000 TS 60 989 0 14 16
1996269N09337 1996 89 NA NA ISIDORE 1996-09-30 03:00:00 TS 24.5350 -40.2200 main 2362 2330 P_____________ AL091996 24.5350 -40.2200 TS 60 990 0 15 10
1996269N09337 1996 89 NA NA ISIDORE 1996-09-30 06:00:00 TS 25.3000 -40.1000 60 992 hurdat_atl main 2330 2303 O_____________ hurdat_atl AL091996 25.3000 -40.1000 TS 60 992 0 15 7
1996269N09337 1996 89 NA NA ISIDORE 1996-09-30 09:00:00 TS 26.0000 -40.0199 main 2303 2289 P_____________ AL091996 26.0000 -40.0199 TS 55 993 0 14 4
1996269N09337 1996 89 NA NA ISIDORE 1996-09-30 12:00:00 TS 26.7000 -40.0000 50 995 hurdat_atl main 2289 2277 O_____________ hurdat_atl AL091996 26.7000 -40.0000 TS 50 995 0 14 359
1996269N09337 1996 89 NA NA ISIDORE 1996-09-30 15:00:00 TS 27.4275 -40.0275 main 2277 2272 P_____________ AL091996 27.4275 -40.0275 TS 47 996 0 15 357
1996269N09337 1996 89 NA NA ISIDORE 1996-09-30 18:00:00 TS 28.2000 -40.1000 45 997 hurdat_atl main 2276 2260 O_____________ hurdat_atl AL091996 28.2000 -40.1000 TS 45 997 0 16 355
1996269N09337 1996 89 NA NA ISIDORE 1996-09-30 21:00:00 TS 29.0350 -40.1998 main 2260 2166 P_____________ AL091996 29.0350 -40.1998 TS 40 998 0 17 354
1996269N09337 1996 89 NA NA ISIDORE 1996-10-01 00:00:00 TS 29.9000 -40.3000 35 1000 hurdat_atl main 2166 2082 O_____________ hurdat_atl AL091996 29.9000 -40.3000 TS 35 1000 0 17 355
1996269N09337 1996 89 NA NA ISIDORE 1996-10-01 03:00:00 TS 30.7275 -40.3651 main 2082 2004 P_____________ AL091996 30.7275 -40.3651 TS 35 1001 0 17 357
1996269N09337 1996 89 NA NA ISIDORE 1996-10-01 06:00:00 TS 31.6000 -40.4000 35 1002 hurdat_atl main 1994 1907 O_____________ hurdat_atl AL091996 31.6000 -40.4000 TS 35 1002 0 18 359
1996269N09337 1996 89 NA NA ISIDORE 1996-10-01 09:00:00 TS 32.5625 -40.4149 main 1898 1813 P_____________ AL091996 32.5625 -40.4149 TS 32 1003 -1 20 0
1996269N09337 1996 89 NA NA ISIDORE 1996-10-01 12:00:00 TS 33.6000 -40.4000 30 1005 hurdat_atl main 1803 1711 O_____________ hurdat_atl AL091996 33.6000 -40.4000 TD 30 1005 -1 21 1
1996269N09337 1996 89 NA NA ISIDORE 1996-10-01 15:00:00 TS 34.6775 -40.3576 main 1701 1617 P_____________ AL091996 34.6775 -40.3576 TD 30 1006 -1 22 2
1996269N09337 1996 89 NA NA ISIDORE 1996-10-01 18:00:00 TS 35.8000 -40.3000 30 1008 hurdat_atl main 1608 1513 O_____________ hurdat_atl AL091996 35.8000 -40.3000 TD 30 1008 -1 23 2
1996269N09337 1996 89 NA NA ISIDORE 1996-10-01 21:00:00 TS 36.9499 -40.2857 main 1513 1428 P_____________ AL091996 36.9499 -40.2857 TD 27 1009 -1 23 2
1996269N09337 1996 89 NA NA ISIDORE 1996-10-02 00:00:00 ET 38.1000 -40.2000 25 1010 hurdat_atl main 1420 1342 O_____________ hurdat_atl AL091996 38.1000 -40.2000 EX 25 1010 -4 22 3
1996269N09337 1996 89 NA NA ISIDORE 1996-10-02 03:00:00 ET 39.1656 -40.1497 main 1341 1293 P_____________ AL091996 39.1656 -40.1497 EX 22 1011 -4 23 12
1996269N09337 1996 89 NA NA ISIDORE 1996-10-02 06:00:00 ET 40.3000 -39.6000 20 1013 hurdat_atl main 1293 1286 O_____________ hurdat_atl AL091996 40.3000 -39.6000 EX 20 1013 -4 29 32
1996269N09337 1996 89 NA NA ISIDORE 1996-10-02 09:00:00 ET 41.6097 -38.1158 main 1314 1314 P_____________ AL091996 41.6097 -38.1158 EX 20 1014 -4 38 45
1996269N09337 1996 89 NA NA ISIDORE 1996-10-02 12:00:00 ET 43.0000 -36.0000 20 1015 hurdat_atl main 1384 O_____________ hurdat_atl AL091996 43.0000 -36.0000 EX 20 1015 -4 42 48

About IBTrACS Database

This database is a web-friendly format of International Best Track Archive for Climate Stewardship (IBTrACS), a global best track data archive curated by NOAA dating back to 1842.

Updated: 2021-11-26